Weather observations for the past three days for
Boone Municipal
Metric (Imperial)
Date Time (cdt) Wind (kph) Vis. (km) Weather Sky Cond. Temperature (ºC) Relative Humidity Wind Chill (°C) Heat Index (°C) Pressure Precipitation (cm)
Air Dwpt 6 hour altimeter (cm) sea level (mb) 1 hr 3 hr 6 hr
Max. Min.
04 07:35 Vrbl 7 16.09 Mostly Cloudy BKN100 24 21 83% 24 75.87 0.0
04 07:15 S 9 16.09 Overcast OVC095 24 21 83% 24 75.87 0.0
04 06:55 S 7 16.09 Mostly Cloudy BKN095 23 21 89% 75.87 0.0
04 06:35 Calm 16.09 Overcast OVC095 23 21 89% 75.87 0.0
04 06:15 S 6 16.09 NULL NULL 24 21 83% 24 75.87 0.0
04 05:55 SW 7 16.09 NULL NULL 24 21 83% 24 75.84 0.0
04 05:35 S 9 16.09 NULL NULL 24 21 83% 24 75.84 0.0
04 05:15 SW 9 16.09 NULL NULL 24 21 83% 24 75.84 0.0
04 04:55 S 9 16.09 NULL NULL 24 21 83% 24 75.84 0.0
04 04:15 S 7 16.09 Fair CLR 24 21 83% 24 75.84 0.0
04 03:55 Vrbl 7 16.09 NULL NULL 25 21 79% 26 75.84 0.0
04 03:35 Vrbl 6 16.09 NULL NULL 25 21 79% 26 75.82 0.0
04 03:15 S 6 16.09 NULL NULL 24 22 89% 24 75.82 0.0
04 02:55 Calm 16.09 Fair CLR 23 22 94% 75.82 0.0
04 02:35 Calm 16.09 Fair CLR 24 22 89% 24 75.82 0.0
04 02:15 S 6 16.09 Fair CLR 25 22 83% 26 75.82 0.0
04 01:55 Vrbl 7 16.09 Fair CLR 25 22 83% 26 75.82 0.0
04 01:35 Vrbl 7 0.00 Fair CLR 25 22 83% 26 75.82 0.0
04 01:15 S 7 16.09 Fair CLR 25 22 83% 26 75.82 0.0
04 00:55 S 9 16.09 NULL NULL 25 22 83% 26 75.82 0.0
04 00:35 S 7 16.09 NULL NULL 24 22 89% 24 75.82 0.0
04 00:15 S 9 16.09 Fair CLR 25 22 83% 26 75.82 0.0
03 23:55 S 7 16.09 Fair CLR 25 22 83% 26 75.82 0.0
03 23:35 Vrbl 7 16.09 Fair CLR 25 22 83% 26 75.82 0.0
03 23:15 S 7 16.09 NULL NULL 25 22 83% 26 75.82 0.0
03 22:55 S 9 16.09 NULL NULL 25 22 83% 26 75.82 0.0
03 22:35 S 7 16.09 Fair CLR 25 22 83% 26 75.82 0.0
03 22:15 S 6 16.09 NULL NULL 26 23 84% 28 75.82 0.0
03 21:55 S 7 16.09 NULL NULL 26 23 84% 28 75.82 0.0
03 21:35 S 7 16.09 NULL NULL 25 23 89% 26 75.79 0.0
03 21:15 Calm 16.09 NULL NULL 26 23 84% 28 75.79 0.0
03 20:55 S 7 16.09 Fair CLR 27 23 79% 30 75.77 0.0
03 20:35 S 6 16.09 Fair CLR 27 23 79% 30 75.74 0.0
03 20:15 S 9 16.09 Fair CLR 28 23 74% 31 75.74 0.0
03 19:55 S 9 16.09 Fair CLR 28 23 74% 31 75.72 0.0
03 19:35 Vrbl 9 16.09 Fair CLR 29 23 70% 33 75.72 0.0
03 19:15 S 7 G 19 16.09 Fair CLR 30 23 66% 34 75.72 0.0
03 18:55 S 9 16.09 Fair CLR 31 23 62% 35 75.72 0.0
03 18:35 S 11 16.09 Fair CLR 32 23 59% 37 75.72 0.0
03 18:15 Vrbl 9 16.09 Fair CLR 32 23 59% 37 75.72 0.0
03 17:55 S 15 16.09 Fair CLR 32 23 59% 37 75.72 0.0
03 17:35 S 13 G 24 16.09 Fair CLR 33 23 56% 38 75.72 0.0
03 17:15 S 17 16.09 Fair CLR 32 24 63% 38 75.72 0.0
03 16:55 SE 15 G 28 16.09 Fair CLR 32 25 67% 39 75.74 0.0
03 16:35 SE 17 16.09 Fair CLR 32 24 63% 38 75.77 0.0
03 16:15 SE 20 G 30 16.09 Fair CLR 31 24 66% 37 75.77 0.0
03 15:55 SE 20 G 30 16.09 Fair CLR 31 25 70% 38 75.77 0.0
03 15:35 SE 19 G 31 16.09 Fair CLR 30 24 70% 35 75.79 0.0
03 15:15 SE 22 16.09 Fair CLR 30 24 70% 35 75.82 0.0
03 14:55 SE 22 16.09 A Few Clouds FEW100 29 24 74% 34 75.84 0.0
03 14:35 SE 19 16.09 Partly Cloudy SCT100 28 24 79% 32 75.84 0.0
03 14:15 SE 19 G 28 16.09 Fair CLR 27 24 84% 30 75.87 0.0
03 13:55 SE 24 16.09 A Few Clouds FEW095 26 24 89% 28 75.9 0.0 0.33
03 13:35 E 19 12.87 Partly Cloudy FEW025 FEW044 SCT075 25 24 94% 26 75.92 0.0
03 13:15 E 11 6.44 Light Rain FEW039 SCT050 BKN095 24 24 100% 23 75.97 0.0
03 12:55 NE 15 0.00 NULL NULL 25 24 94% 26 75.95 0.0
03 12:35 N 11 12.87 Light Rain SCT070 BKN085 OVC110 26 24 89% 28 75.97 0.0
03 12:15 Calm 16.09 Mostly Cloudy BKN095 BKN110 26 24 89% 28 75.95 0.0
03 11:55 Calm 14.48 A Few Clouds FEW100 26 24 89% 28 75.97 0.0
03 11:35 SE 9 16.09 A Few Clouds FEW065 FEW095 FEW110 26 23 84% 28 75.97 0.0
03 11:15 E 7 16.09 Fair CLR 25 23 89% 26 75.92 0.0
03 10:35 SE 7 16.09 Fair CLR 24 23 94% 23 75.97 0.0
03 10:15 SE 9 16.09 Fair CLR 24 23 94% 23 75.97 0.0
03 09:55 SE 9 16.09 Fair CLR 24 22 89% 24 75.95 0.0
03 09:35 SE 9 16.09 Fair CLR 24 22 89% 24 75.97 0.0
03 09:15 SE 13 16.09 Fair CLR 25 22 83% 26 75.95 0.0
03 08:55 SE 9 16.09 Fair CLR 25 22 83% 26 75.92 0.0
03 08:35 SE 11 16.09 Fair CLR 24 22 89% 24 75.95 0.0
03 08:15 E 9 16.09 Fair CLR 24 22 89% 24 75.95 0.0
03 07:55 Calm 16.09 Fair CLR 24 22 89% 24 75.97 0.0
03 07:35 E 6 16.09 Fair CLR 23 22 94% 75.95 0.0
03 07:15 E 7 16.09 Fair CLR 23 22 94% 75.95 0.0
03 06:55 E 7 16.09 A Few Clouds FEW075 FEW100 FEW120 23 21 89% 75.92 0.0
03 06:35 N 7 16.09 NULL NULL 23 21 89% 75.92 0.0
03 06:15 N 15 G 24 16.09 NULL NULL 24 21 83% 24 75.92 0.0
03 05:55 SW 7 16.09 NULL NULL 24 21 83% 24 75.87 0.0
03 05:35 SW 9 16.09 NULL NULL 25 20 74% 26 75.84 0.0
03 05:15 S 7 16.09 NULL NULL 24 21 83% 24 75.82 0.0
03 04:55 SW 9 16.09 NULL NULL 24 21 83% 24 75.82 0.0
03 04:35 S 7 16.09 Fair CLR 24 21 83% 24 75.82 0.0
03 04:15 SW 7 16.09 Fair CLR 24 21 83% 24 75.82 0.0
03 03:55 S 7 16.09 Fair CLR 24 21 83% 24 75.82 0.0
03 03:35 S 11 16.09 NULL NULL 24 21 83% 24 75.79 0.0
03 03:15 S 7 16.09 NULL NULL 24 21 83% 24 75.79 0.0
03 02:55 S 7 16.09 Fair CLR 25 21 79% 26 75.79 0.0
03 02:35 S 9 16.09 Fair CLR 25 21 79% 26 75.79 0.0
03 02:15 S 7 16.09 Fair CLR 25 21 79% 26 75.82 0.0
03 01:55 S 9 16.09 NULL NULL 26 21 74% 27 75.82 0.0
03 01:35 Vrbl 7 G 20 16.09 NULL NULL 26 21 74% 27 75.82 0.0
03 01:15 S 9 16.09 Fair CLR 26 21 74% 27 75.82 0.0
03 00:55 S 11 16.09 Fair CLR 27 21 70% 29 75.82 0.0
03 00:35 S 13 16.09 Fair CLR 27 21 70% 29 75.82 0.0
03 00:15 S 11 G 20 16.09 Fair CLR 27 21 70% 29 75.82 0.0
02 23:55 Vrbl 11 16.09 Fair CLR 26 22 79% 28 75.82 0.0
02 23:35 S 7 16.09 NULL NULL 26 22 79% 28 75.82 0.0
02 23:15 S 9 16.09 NULL NULL 26 22 79% 28 75.82 0.0
02 22:55 S 9 16.09 Fair CLR 27 22 74% 29 75.82 0.0
02 22:35 Vrbl 9 16.09 Fair CLR 27 22 74% 29 75.84 0.0
02 22:15 Vrbl 9 16.09 NULL NULL 27 23 79% 30 75.84 0.0
02 21:55 S 7 16.09 Fair CLR 27 23 79% 30 75.84 0.0
02 21:35 S 11 16.09 Fair CLR 28 23 74% 31 75.82 0.0
02 21:15 S 9 16.09 NULL NULL 28 23 74% 31 75.82 0.0
02 20:55 S 9 16.09 Fair CLR 28 23 74% 31 75.82 0.0
02 20:35 S 9 16.09 NULL NULL 28 23 74% 31 75.79 0.0
02 20:15 S 7 16.09 A Few Clouds FEW120 29 23 70% 33 75.79 0.0
02 19:55 S 7 16.09 Fair CLR 29 24 74% 34 75.77 0.0
02 19:35 S 7 16.09 Fair CLR 29 24 74% 34 75.77 0.0
02 19:15 S 7 16.09 Fair CLR 30 24 70% 35 75.77 0.0
02 18:55 S 7 16.09 Fair CLR 30 24 70% 35 75.79 0.0
02 18:35 S 9 16.09 Fair CLR 31 24 66% 37 75.77 0.0
02 18:15 S 7 16.09 Fair CLR 31 24 66% 37 75.77 0.0
02 17:55 S 9 16.09 Fair CLR 32 25 67% 39 75.79 0.0
02 17:35 SE 9 16.09 Fair CLR 32 25 67% 39 75.79 0.0
02 17:15 SE 15 16.09 Fair CLR 32 24 63% 38 75.79 0.0
02 16:55 SE 15 0.00 Fair CLR 31 24 66% 37 75.79 0.0
02 16:35 SE 13 16.09 A Few Clouds FEW110 30 24 70% 35 75.82 0.0
02 16:15 S 13 16.09 A Few Clouds FEW055 FEW065 FEW110 29 23 70% 33 75.82 0.0
02 15:55 Calm 11.27 Light Drizzle FEW050 SCT065 BKN110 27 24 84% 30 75.84 0.0 0.18
02 15:35 S 9 14.48 Mostly Cloudy BKN100 28 26 89% 34 75.92 0.0
02 15:15 SE 15 9.66 Light Rain FEW042 SCT100 SCT120 28 25 84% 33 75.87 0.0
02 14:55 SE 13 12.87 Partly Cloudy FEW042 FEW060 SCT120 28 25 84% 33 75.9 0.0 0.05
02 14:35 S 7 14.48 A Few Clouds FEW043 FEW065 FEW100 30 22 62% 33 75.95 0.0
02 14:15 SE 6 16.09 Partly Cloudy SCT100 30 22 62% 33 75.95 0.0
02 14:00 S 6 16.09 Mostly Cloudy BKN100 30 22 62% 33 75.95 0.0
02 13:35 Calm 12.87 Light Rain BKN100 BKN120 29 22 66% 32 75.97 0.0
02 13:15 S 13 16.09 Fair CLR 31 21 55% 34 75.97 0.0
02 12:55 Vrbl 9 16.09 Fair CLR 32 22 55% 36 75.95 0.0
02 12:35 Vrbl 9 16.09 A Few Clouds FEW100 31 21 55% 34 76 0.0
02 12:15 S 11 16.09 Partly Cloudy SCT100 30 20 55% 32 76 0.0
02 11:55 SE 9 16.09 Partly Cloudy SCT100 SCT120 30 20 55% 32 76.02 0.0
02 11:35 S 9 G 22 16.09 A Few Clouds FEW100 FEW120 30 20 55% 32 76.02 0.0
02 11:15 SE 17 16.09 Fair CLR 31 20 52% 33 76 0.0
02 10:55 SE 15 16.09 Fair CLR 29 21 62% 31 76.02 0.0
02 10:35 SE 19 16.09 Fair CLR 28 20 62% 30 76 0.0
02 10:15 SE 11 G 20 16.09 Fair CLR 29 21 62% 31 76.05 0.0
02 09:55 SE 13 G 22 16.09 Fair CLR 28 22 70% 31 76.02 0.0
02 09:35 SE 15 16.09 Fair CLR 27 21 70% 29 76 0.0
02 09:20 SE 11 G 20 14.48 Fair CLR 26 21 74% 27 76 0.0
02 08:55 SE 15 16.09 A Few Clouds FEW110 25 21 79% 26 76.02 0.0
02 08:35 SE 11 16.09 Partly Cloudy SCT110 24 21 83% 24 76.02 0.0
02 08:15 SE 11 16.09 Mostly Cloudy BKN110 24 21 83% 24 76.05 0.0
02 07:55 SE 9 16.09 A Few Clouds FEW110 23 20 83% 76.02 0.0
02 07:35 SE 13 16.09 Fair CLR 22 20 88% 76.05 0.0
02 07:15 SE 11 16.09 Fair CLR 21 19 88% 76.05 0.0
02 06:55 E 7 16.09 NULL NULL 21 19 88% 76.02 0.0
02 06:35 E 9 0.00 NULL NULL 21 19 88% 76.02 0.0
02 06:15 E 9 16.09 NULL NULL 22 19 83% 76.05 0.0
02 05:55 E 13 16.09 NULL NULL 22 20 88% 76.05 0.0
02 05:35 NE 20 G 41 16.09 NULL NULL 24 18 69% 25 76.05 0.0
02 05:15 W 15 G 33 16.09 NULL NULL 23 20 83% 76.07 0.0
02 04:55 N 17 16.09 NULL NULL 23 21 89% 76.1 0.0
02 04:40 N 15 16.09 NULL NULL 23 21 89% 76.1 0.0
02 04:20 NW 20 16.09 Partly Cloudy SCT100 SCT120 24 20 78% 24 76.07 0.0
02 03:55 NW 20 G 39 16.09 NULL NULL 25 20 74% 26 76.07 0.0
02 03:35 SW 9 16.09 NULL NULL 25 19 69% 26 75.95 0.0
02 03:15 S 7 16.09 NULL NULL 25 19 69% 26 75.92 0.0
02 02:55 S 11 16.09 Mostly Cloudy SCT095 BKN120 25 19 69% 26 75.92 0.0
02 02:35 S 13 16.09 Overcast OVC095 26 19 65% 27 75.92 0.0
02 02:15 S 11 G 20 16.09 Partly Cloudy SCT095 26 19 65% 27 75.92 0.0
02 01:55 Vrbl 11 G 22 16.09 Fair CLR 26 19 65% 27 75.9 0.0
02 01:35 S 11 16.09 NULL NULL 25 20 74% 26 75.84 0.0
02 01:15 S 13 G 22 16.09 NULL NULL 26 20 70% 27 75.87 0.0
02 00:55 Vrbl 11 16.09 NULL NULL 26 20 70% 27 75.87 0.0
02 00:35 S 13 16.09 Fair CLR 27 20 66% 29 75.9 0.0
02 00:15 S 15 16.09 Fair CLR 27 20 66% 29 75.9 0.0
01 23:55 S 11 G 24 16.09 Fair CLR 27 20 66% 29 75.92 0.0
01 23:35 S 13 16.09 Fair CLR 27 20 66% 29 75.9 0.0
01 23:15 S 11 16.09 Fair CLR 27 21 70% 29 75.92 0.0
01 22:55 Vrbl 9 16.09 NULL NULL 26 21 74% 27 75.92 0.0
01 22:35 S 7 16.09 NULL NULL 26 22 79% 28 75.92 0.0
01 22:15 S 7 16.09 Fair CLR 26 22 79% 28 75.92 0.0
01 21:55 S 7 16.09 NULL NULL 26 22 79% 28 75.9 0.0
01 21:35 S 9 16.09 NULL NULL 27 22 74% 29 75.9 0.0
01 21:15 S 9 16.09 NULL NULL 27 23 79% 30 75.87 0.0
01 20:55 S 9 16.09 NULL NULL 27 23 79% 30 75.87 0.0
01 20:35 S 9 16.09 NULL NULL 27 23 79% 30 75.87 0.0
01 20:15 SE 7 16.09 Fair CLR 28 23 74% 31 75.84 0.0
01 19:55 S 9 16.09 Fair CLR 29 23 70% 33 75.84 0.0
01 19:35 S 9 16.09 Fair CLR 29 23 70% 33 75.84 0.0
01 19:15 S 7 16.09 Fair CLR 31 23 62% 35 75.84 0.0
01 18:55 S 7 16.09 Fair CLR 31 23 62% 35 75.87 0.0
01 18:35 S 7 16.09 Fair CLR 32 23 59% 37 75.87 0.0
01 18:15 S 7 16.09 Fair CLR 32 23 59% 37 75.87 0.0
01 17:55 Vrbl 7 16.09 Fair CLR 33 23 56% 38 75.87 0.0
01 17:35 Vrbl 7 G 19 16.09 Fair CLR 33 23 56% 38 75.87 0.0
01 17:15 S 15 G 26 16.09 Fair CLR 33 22 52% 37 75.9 0.0
01 16:55 S 13 16.09 Fair CLR 33 23 56% 38 75.9 0.0
01 16:35 S 13 16.09 Fair CLR 33 22 52% 37 75.9 0.0
01 16:15 S 13 G 24 16.09 Fair CLR 33 22 52% 37 75.9 0.0
01 15:55 Vrbl 11 G 20 16.09 Fair CLR 33 22 52% 37 75.92 0.0
01 15:35 Vrbl 7 G 19 16.09 Fair CLR 33 22 52% 37 75.95 0.0
01 15:15 SW 11 16.09 Fair CLR 33 22 52% 37 75.97 0.0
01 14:55 Vrbl 11 16.09 Fair CLR 33 22 52% 37 75.97 0.0
01 14:35 S 11 16.09 Fair CLR 32 22 55% 36 76 0.0
01 14:15 Vrbl 11 14.48 Fair CLR 32 22 55% 36 76 0.0
01 13:55 SW 11 16.09 Fair CLR 32 22 55% 36 76 0.0
01 13:35 Vrbl 6 16.09 Fair CLR 32 23 59% 37 76.02 0.0
01 13:15 Vrbl 6 16.09 Fair CLR 32 23 59% 37 76.05 0.0
01 12:55 SW 6 16.09 Fair CLR 32 22 55% 36 76.05 0.0
01 12:35 Calm 16.09 Fair CLR 31 22 59% 35 76.05 0.0
01 12:15 Vrbl 9 16.09 Fair CLR 31 22 59% 35 76.07 0.0
01 11:55 S 7 16.09 Fair CLR 31 22 59% 35 76.07 0.0
01 11:35 SW 7 16.09 Fair CLR 30 23 66% 34 76.07 0.0
01 11:15 S 6 16.09 Fair CLR 30 23 66% 34 76.05 0.0
01 10:55 SW 7 16.09 Fair CLR 29 23 70% 33 76.05 0.0
01 10:35 Vrbl 7 16.09 Fair CLR 29 24 74% 34 76.07 0.0
01 10:15 Calm 16.09 Fair CLR 28 24 79% 32 76.07 0.0
01 09:55 S 7 16.09 Fair CLR 28 25 84% 33 76.05 0.0
01 09:35 SE 6 16.09 Fair CLR 27 25 89% 31 76.07 0.0
01 09:15 SE 9 14.48 A Few Clouds FEW110 26 25 94% 28 76.07 0.0
01 08:50 SE 7 9.66 Fog/Mist CLR 26 25 94% 28 76.07 0.0
01 08:35 E 7 4.83 Fog/Mist CLR 25 25 100% 25 76.07 0.0
01 08:15 E 7 3.22 Fog/Mist CLR 24 24 100% 23 76.1 0.0
01 07:55 SE 7 2.41 Fog/Mist CLR 24 24 100% 23 76.07 0.0
Date Time (cdt) Wind (kph) Vis. (km) Weather Sky Cond. Air Dwpt Max. Min. Relative Humidity Wind Chill (°C) Heat Index (°C) altimeter (cm) sea level (mb) 1 hr 3 hr 6 hr
6 hour
Temperature (ºC) Pressure Precipitation (cm)